createdAt,value
2023-04-16T00:00:11.540Z,1010.00
2023-04-16T00:01:11.540Z,922.00
2023-04-16T00:02:11.659Z,769.00
2023-04-16T00:03:11.711Z,717.00
2023-04-16T00:04:11.618Z,650.00
2023-04-16T00:05:11.532Z,639.00
2023-04-16T00:06:11.547Z,726.00
2023-04-16T00:07:11.531Z,735.00
2023-04-16T00:08:11.559Z,664.00
2023-04-16T00:09:11.657Z,660.00
2023-04-16T00:10:11.540Z,731.00
2023-04-16T00:11:11.551Z,865.00
2023-04-16T00:12:11.532Z,910.00
2023-04-16T00:13:11.535Z,851.00
2023-04-16T00:14:11.529Z,817.00
2023-04-16T00:15:11.558Z,748.00
2023-04-16T00:16:11.546Z,693.00
2023-04-16T00:17:11.599Z,680.00
2023-04-16T00:18:11.551Z,662.00
2023-04-16T00:19:11.622Z,663.00
2023-04-16T00:20:11.552Z,664.00
2023-04-16T00:21:11.554Z,724.00
2023-04-16T00:22:11.531Z,749.00
2023-04-16T00:23:11.532Z,854.00
2023-04-16T00:24:11.543Z,885.00
2023-04-16T00:25:11.537Z,843.00
2023-04-16T00:26:11.545Z,806.00
2023-04-16T00:27:11.530Z,699.00
2023-04-16T00:28:11.544Z,706.00
2023-04-16T00:29:11.759Z,654.00
2023-04-16T00:30:11.544Z,633.00
2023-04-16T00:31:11.548Z,616.00
2023-04-16T00:32:11.539Z,620.00
2023-04-16T00:33:11.545Z,661.00
2023-04-16T00:34:11.561Z,799.00
2023-04-16T00:35:11.544Z,846.00
2023-04-16T00:36:11.564Z,786.00
2023-04-16T00:37:11.557Z,761.00
2023-04-16T00:38:11.561Z,697.00
2023-04-16T00:39:11.641Z,671.00
2023-04-16T00:40:11.571Z,655.00
2023-04-16T00:41:11.577Z,639.00
2023-04-16T00:42:11.576Z,660.00
2023-04-16T00:43:11.590Z,662.00
2023-04-16T00:44:11.591Z,703.00
2023-04-16T00:45:11.581Z,650.00
2023-04-16T00:46:11.646Z,666.00
2023-04-16T00:47:11.589Z,663.00
2023-04-16T00:48:11.595Z,651.00
2023-04-16T00:49:11.579Z,657.00
2023-04-16T00:50:11.595Z,647.00
2023-04-16T00:51:11.593Z,615.00
2023-04-16T00:52:11.594Z,597.00
2023-04-16T00:53:11.613Z,603.00
2023-04-16T00:54:11.606Z,648.00
2023-04-16T00:55:11.590Z,690.00
2023-04-16T00:56:11.606Z,897.00
2023-04-16T00:57:11.608Z,865.00
2023-04-16T00:58:11.618Z,852.00
2023-04-16T00:59:11.700Z,811.00
2023-04-16T01:00:11.607Z,864.00
2023-04-16T01:01:11.676Z,816.00
2023-04-16T01:02:11.664Z,810.00
2023-04-16T01:03:11.728Z,789.00
2023-04-16T01:04:11.652Z,679.00
2023-04-16T01:05:11.620Z,696.00
2023-04-16T01:06:11.619Z,655.00
2023-04-16T01:07:11.613Z,644.00
2023-04-16T01:08:11.648Z,658.00
2023-04-16T01:09:11.753Z,735.00
2023-04-16T01:10:11.627Z,750.00
2023-04-16T01:11:11.656Z,751.00
2023-04-16T01:12:11.611Z,747.00
2023-04-16T01:13:11.638Z,770.00
2023-04-16T01:14:11.607Z,846.00
2023-04-16T01:15:11.636Z,869.00
2023-04-16T01:16:11.660Z,900.00
2023-04-16T01:17:11.604Z,862.00
2023-04-16T01:18:11.617Z,859.00
2023-04-16T01:19:11.926Z,904.00
2023-04-16T01:20:11.602Z,940.00
2023-04-16T01:21:11.583Z,1037.00
2023-04-16T01:22:11.582Z,945.00
2023-04-16T01:23:11.624Z,894.00
2023-04-16T01:24:11.590Z,911.00
2023-04-16T01:25:11.596Z,894.00
2023-04-16T01:26:11.599Z,917.00
2023-04-16T01:27:11.588Z,912.00
2023-04-16T01:28:11.593Z,913.00
2023-04-16T01:29:11.621Z,961.00
2023-04-16T01:30:11.597Z,989.00
2023-04-16T01:31:11.614Z,967.00
2023-04-16T01:32:11.594Z,961.00
2023-04-16T01:33:11.603Z,1000.00
2023-04-16T01:34:11.577Z,918.00
2023-04-16T01:35:11.562Z,920.00
2023-04-16T01:36:11.569Z,986.00
2023-04-16T01:37:11.558Z,978.00
2023-04-16T01:38:11.580Z,1000.00
2023-04-16T01:39:11.574Z,1049.00
2023-04-16T01:40:11.567Z,1031.00
2023-04-16T01:41:11.547Z,1037.00
2023-04-16T01:42:11.559Z,1046.00
2023-04-16T01:43:11.549Z,1009.00
2023-04-16T01:44:11.563Z,1000.00
2023-04-16T01:45:11.532Z,999.00
2023-04-16T01:46:11.569Z,1055.00
2023-04-16T01:47:11.525Z,1084.00
2023-04-16T01:48:11.535Z,1076.00
2023-04-16T01:49:11.788Z,1070.00
2023-04-16T01:50:11.527Z,1120.00
2023-04-16T01:51:11.519Z,1102.00
2023-04-16T01:52:11.532Z,1065.00
2023-04-16T01:53:11.525Z,1111.00
2023-04-16T01:54:11.540Z,1064.00
2023-04-16T01:55:11.514Z,1010.00
2023-04-16T01:56:11.523Z,1050.00
2023-04-16T01:57:11.548Z,1039.00
2023-04-16T01:58:11.548Z,997.00
2023-04-16T01:59:11.711Z,1021.00
2023-04-16T02:00:11.509Z,988.00
2023-04-16T02:01:11.564Z,1020.00
2023-04-16T02:02:11.609Z,992.00
2023-04-16T02:03:11.662Z,952.00
2023-04-16T02:04:11.530Z,981.00
2023-04-16T02:05:11.507Z,959.00
2023-04-16T02:06:11.559Z,969.00
2023-04-16T02:07:11.589Z,959.00
2023-04-16T02:08:11.570Z,966.00
2023-04-16T02:09:11.762Z,933.00
2023-04-16T02:10:11.589Z,979.00
2023-04-16T02:11:11.590Z,1014.00
2023-04-16T02:12:11.597Z,987.00
2023-04-16T02:13:11.586Z,999.00
2023-04-16T02:14:11.595Z,943.00
2023-04-16T02:15:11.596Z,972.00
2023-04-16T02:16:11.655Z,923.00
2023-04-16T02:17:11.621Z,921.00
2023-04-16T02:18:11.624Z,859.00
2023-04-16T02:19:11.672Z,920.00
2023-04-16T02:20:11.609Z,916.00
2023-04-16T02:21:11.594Z,870.00
2023-04-16T02:22:11.602Z,877.00
2023-04-16T02:23:11.617Z,897.00
2023-04-16T02:24:11.598Z,855.00
2023-04-16T02:25:11.618Z,897.00
2023-04-16T02:26:11.609Z,1053.00
2023-04-16T02:27:11.622Z,1157.00
2023-04-16T02:28:11.635Z,1202.00
2023-04-16T02:29:11.810Z,1205.00
2023-04-16T02:30:11.606Z,1173.00
2023-04-16T02:31:11.617Z,1136.00
2023-04-16T02:32:11.662Z,1077.00
2023-04-16T02:33:11.658Z,1070.00
2023-04-16T02:34:11.630Z,1081.00
2023-04-16T02:35:11.594Z,1009.00
2023-04-16T02:36:11.585Z,1022.00
2023-04-16T02:37:11.599Z,1101.00
2023-04-16T02:38:11.643Z,1072.00
2023-04-16T02:39:11.740Z,1052.00
2023-04-16T02:40:11.588Z,1031.00
2023-04-16T02:41:11.610Z,1100.00
2023-04-16T02:42:11.584Z,1102.00
2023-04-16T02:43:11.626Z,1075.00
2023-04-16T02:44:11.601Z,1041.00
2023-04-16T02:45:11.616Z,1079.00
2023-04-16T02:46:11.660Z,1114.00
2023-04-16T02:47:11.599Z,1150.00
2023-04-16T02:48:11.623Z,1189.00
2023-04-16T02:49:11.793Z,1148.00
2023-04-16T02:50:11.607Z,1238.00
2023-04-16T02:51:11.625Z,1205.00
2023-04-16T02:52:12.478Z,1200.00
2023-04-16T02:53:11.646Z,1304.00
2023-04-16T02:54:11.641Z,1285.00
2023-04-16T02:55:11.619Z,1274.00
2023-04-16T02:56:11.622Z,1326.00
2023-04-16T02:57:11.635Z,1340.00
2023-04-16T02:58:11.675Z,1376.00
2023-04-16T02:59:11.742Z,1305.00
2023-04-16T03:00:11.640Z,1298.00
2023-04-16T03:01:11.675Z,1376.00
2023-04-16T03:02:11.678Z,1401.00
2023-04-16T03:03:11.732Z,1438.00
2023-04-16T03:04:11.839Z,1470.00
2023-04-16T03:05:11.766Z,1490.00
2023-04-16T03:06:11.813Z,1491.00
2023-04-16T03:07:11.843Z,1589.00
2023-04-16T03:08:11.856Z,1598.00
2023-04-16T03:09:11.966Z,1558.00
2023-04-16T03:10:11.831Z,1500.00
2023-04-16T03:11:11.837Z,1505.00
2023-04-16T03:12:11.817Z,1492.00
2023-04-16T03:13:11.859Z,1514.00
2023-04-16T03:14:11.840Z,1509.00
2023-04-16T03:15:11.849Z,1501.00
2023-04-16T03:16:11.894Z,1514.00
2023-04-16T03:17:11.825Z,1474.00
2023-04-16T03:18:11.821Z,1456.00
2023-04-16T03:19:12.081Z,1482.00
2023-04-16T03:20:11.821Z,1455.00
2023-04-16T03:21:11.837Z,1448.00
2023-04-16T03:22:11.841Z,1527.00
2023-04-16T03:23:11.855Z,1531.00
2023-04-16T03:24:11.823Z,1514.00
2023-04-16T03:25:11.824Z,1554.00
2023-04-16T03:26:11.811Z,1561.00
2023-04-16T03:27:11.830Z,1522.00
2023-04-16T03:28:11.816Z,1494.00
2023-04-16T03:29:11.861Z,1440.00
2023-04-16T03:30:11.838Z,1453.00
2023-04-16T03:31:11.852Z,1393.00
2023-04-16T03:32:11.816Z,1340.00
2023-04-16T03:33:11.860Z,1325.00
2023-04-16T03:34:11.916Z,1316.00
2023-04-16T03:35:11.969Z,1265.00
2023-04-16T03:36:12.027Z,1253.00
2023-04-16T03:37:12.168Z,1267.00
2023-04-16T03:38:12.078Z,1287.00
2023-04-16T03:39:12.113Z,1269.00
2023-04-16T03:40:12.024Z,1280.00
2023-04-16T03:41:12.041Z,1358.00
2023-04-16T03:42:12.048Z,1333.00
2023-04-16T03:43:12.059Z,1248.00
2023-04-16T03:44:12.031Z,1274.00
2023-04-16T03:45:12.053Z,1272.00
2023-04-16T03:46:12.066Z,1345.00
2023-04-16T03:47:12.047Z,1351.00
2023-04-16T03:48:12.052Z,1337.00
2023-04-16T03:49:12.316Z,1418.00
2023-04-16T03:50:12.052Z,1466.00
2023-04-16T03:51:12.056Z,1482.00
2023-04-16T03:52:12.049Z,1462.00
2023-04-16T03:53:12.085Z,1448.00
2023-04-16T03:54:12.055Z,1491.00
2023-04-16T03:55:12.035Z,1502.00
2023-04-16T03:56:12.045Z,1466.00
2023-04-16T03:57:12.064Z,1462.00
2023-04-16T03:58:12.089Z,1524.00
2023-04-16T03:59:12.053Z,1650.00
2023-04-16T04:00:12.055Z,1670.00
2023-04-16T04:01:12.050Z,1732.00
2023-04-16T04:02:12.135Z,1786.00
2023-04-16T04:03:12.198Z,1963.00
2023-04-16T04:04:12.214Z,2012.00
2023-04-16T04:05:12.075Z,2028.00
2023-04-16T04:06:12.069Z,1940.00
2023-04-16T04:07:12.089Z,1916.00
2023-04-16T04:08:12.106Z,1880.00
2023-04-16T04:09:12.117Z,1822.00
2023-04-16T04:10:12.086Z,1839.00
2023-04-16T04:11:12.079Z,1804.00
2023-04-16T04:12:12.094Z,1699.00
2023-04-16T04:13:12.104Z,1725.00
2023-04-16T04:14:12.101Z,1739.00
2023-04-16T04:15:12.091Z,1747.00
2023-04-16T04:16:12.119Z,1703.00
2023-04-16T04:17:12.134Z,1650.00
2023-04-16T04:18:12.117Z,1687.00
2023-04-16T04:19:12.136Z,1658.00
2023-04-16T04:20:12.115Z,1668.00
2023-04-16T04:21:12.116Z,1666.00
2023-04-16T04:22:12.132Z,1647.00
2023-04-16T04:23:12.146Z,1639.00
2023-04-16T04:24:12.148Z,1646.00
2023-04-16T04:25:12.145Z,1619.00
2023-04-16T04:26:12.176Z,1608.00
2023-04-16T04:27:12.165Z,1683.00
2023-04-16T04:28:12.171Z,1699.00
2023-04-16T04:29:12.265Z,1736.00
2023-04-16T04:30:12.157Z,1696.00
2023-04-16T04:31:12.178Z,1654.00
2023-04-16T04:32:12.181Z,1663.00
2023-04-16T04:33:12.198Z,1660.00
2023-04-16T04:34:12.173Z,1706.00
2023-04-16T04:35:12.184Z,1696.00
2023-04-16T04:36:12.220Z,1696.00
2023-04-16T04:37:12.202Z,1732.00
2023-04-16T04:38:13.646Z,1719.00
2023-04-16T04:39:12.183Z,1745.00
2023-04-16T04:40:12.211Z,1771.00
2023-04-16T04:41:12.199Z,1792.00
2023-04-16T04:42:12.174Z,1828.00
2023-04-16T04:43:12.186Z,1776.00
2023-04-16T04:44:12.173Z,1794.00
2023-04-16T04:45:12.151Z,1783.00
2023-04-16T04:46:12.245Z,1781.00
2023-04-16T04:47:12.151Z,1761.00
2023-04-16T04:48:12.142Z,1732.00
2023-04-16T04:49:12.219Z,1717.00
2023-04-16T04:50:12.143Z,1711.00
2023-04-16T04:51:12.129Z,1701.00
2023-04-16T04:52:12.120Z,1748.00
2023-04-16T04:53:12.143Z,1739.00
2023-04-16T04:54:12.106Z,1749.00
2023-04-16T04:55:12.109Z,1770.00
2023-04-16T04:56:13.076Z,1725.00
2023-04-16T04:57:12.073Z,1708.00
2023-04-16T04:58:12.074Z,1712.00
2023-04-16T04:59:12.171Z,1707.00
2023-04-16T05:00:12.054Z,1691.00
2023-04-16T05:01:12.079Z,1676.00
2023-04-16T05:02:12.127Z,1641.00
2023-04-16T05:03:12.147Z,1683.00
2023-04-16T05:04:12.114Z,1675.00
2023-04-16T05:05:12.094Z,1604.00
2023-04-16T05:06:12.043Z,1572.00
2023-04-16T05:07:12.028Z,1533.00
2023-04-16T05:08:12.004Z,1580.00
2023-04-16T05:09:12.089Z,1521.00
2023-04-16T05:10:11.999Z,1474.00
2023-04-16T05:11:12.009Z,1469.00
2023-04-16T05:12:11.999Z,1513.00
2023-04-16T05:13:11.997Z,1502.00
2023-04-16T05:14:11.994Z,1489.00
2023-04-16T05:15:12.013Z,1543.00
2023-04-16T05:16:12.000Z,1597.00
2023-04-16T05:17:11.960Z,1574.00
2023-04-16T05:18:11.950Z,1531.00
2023-04-16T05:19:12.204Z,1576.00
2023-04-16T05:20:11.955Z,1607.00
2023-04-16T05:21:11.937Z,1649.00
2023-04-16T05:22:11.926Z,1621.00
2023-04-16T05:23:11.963Z,1654.00
2023-04-16T05:24:14.329Z,1599.00
2023-04-16T05:25:11.908Z,1601.00
2023-04-16T05:26:11.917Z,1609.00
2023-04-16T05:27:11.910Z,1608.00
2023-04-16T05:28:11.894Z,1598.00
2023-04-16T05:29:12.025Z,1532.00
2023-04-16T05:30:11.884Z,1554.00
2023-04-16T05:31:11.907Z,1523.00
2023-04-16T05:32:11.876Z,1476.00
2023-04-16T05:33:11.856Z,1464.00
2023-04-16T05:34:11.877Z,1414.00
2023-04-16T05:35:11.858Z,1429.00
2023-04-16T05:36:11.844Z,1432.00
2023-04-16T05:37:11.837Z,1436.00
2023-04-16T05:38:11.840Z,1494.00
2023-04-16T05:39:11.912Z,1594.00
2023-04-16T05:40:11.820Z,1572.00
2023-04-16T05:41:11.794Z,1513.00
2023-04-16T05:42:11.804Z,1513.00
2023-04-16T05:43:11.796Z,1499.00
2023-04-16T05:44:11.807Z,1457.00
2023-04-16T05:45:11.770Z,1431.00
2023-04-16T05:46:11.802Z,1457.00
2023-04-16T05:47:11.760Z,1486.00
2023-04-16T05:48:11.774Z,1473.00
2023-04-16T05:49:11.901Z,1516.00
2023-04-16T05:50:11.766Z,1514.00
2023-04-16T05:51:11.742Z,1560.00
2023-04-16T05:52:11.734Z,1569.00
2023-04-16T05:53:11.725Z,1527.00
2023-04-16T05:54:11.710Z,1507.00
2023-04-16T05:55:11.721Z,1455.00
2023-04-16T05:56:11.721Z,1448.00
2023-04-16T05:57:11.710Z,1502.00
2023-04-16T05:58:11.697Z,1524.00
2023-04-16T05:59:11.964Z,1483.00
2023-04-16T06:00:11.737Z,1486.00
2023-04-16T06:01:11.679Z,1504.00
2023-04-16T06:02:11.752Z,1476.00
2023-04-16T06:03:11.823Z,1449.00
2023-04-16T06:04:11.814Z,1417.00
2023-04-16T06:05:11.657Z,1399.00
2023-04-16T06:06:11.647Z,1372.00
2023-04-16T06:07:11.639Z,1389.00
2023-04-16T06:08:11.663Z,1368.00
2023-04-16T06:09:11.850Z,1355.00
2023-04-16T06:10:11.636Z,1261.00
2023-04-16T06:11:11.622Z,1289.00
2023-04-16T06:12:11.613Z,1309.00
2023-04-16T06:13:11.613Z,1368.00
2023-04-16T06:14:11.619Z,1462.00
2023-04-16T06:15:11.603Z,1443.00
2023-04-16T06:16:11.643Z,1498.00
2023-04-16T06:17:11.589Z,1571.00
2023-04-16T06:18:11.669Z,1607.00
2023-04-16T06:19:11.790Z,1633.00
2023-04-16T06:20:11.551Z,1693.00
2023-04-16T06:21:11.563Z,1669.00
2023-04-16T06:22:11.536Z,1580.00
2023-04-16T06:23:11.574Z,1562.00
2023-04-16T06:24:11.532Z,1490.00
2023-04-16T06:25:11.540Z,1496.00
2023-04-16T06:26:11.539Z,1413.00
2023-04-16T06:27:11.534Z,1438.00
2023-04-16T06:28:11.506Z,1509.00
2023-04-16T06:29:11.638Z,1544.00
2023-04-16T06:30:11.521Z,1528.00
2023-04-16T06:31:11.520Z,1565.00
2023-04-16T06:32:11.499Z,1575.00
2023-04-16T06:33:11.496Z,1551.00
2023-04-16T06:34:11.483Z,1527.00
2023-04-16T06:35:11.481Z,1494.00
2023-04-16T06:36:11.649Z,1532.00
2023-04-16T06:37:11.468Z,1448.00
2023-04-16T06:38:11.446Z,1463.00
2023-04-16T06:39:11.608Z,1435.00
2023-04-16T06:40:11.438Z,1408.00
2023-04-16T06:41:11.433Z,1367.00
2023-04-16T06:42:11.419Z,1390.00
2023-04-16T06:43:11.423Z,1495.00
2023-04-16T06:44:11.427Z,1508.00
2023-04-16T06:45:11.413Z,1543.00
2023-04-16T06:46:11.405Z,1541.00
2023-04-16T06:47:11.556Z,1591.00
2023-04-16T06:48:11.400Z,1529.00
2023-04-16T06:49:11.567Z,1517.00
2023-04-16T06:50:11.384Z,1571.00
2023-04-16T06:51:11.363Z,1545.00
2023-04-16T06:52:11.357Z,1489.00
2023-04-16T06:53:11.349Z,1467.00
2023-04-16T06:54:11.347Z,1591.00
2023-04-16T06:55:11.369Z,1726.00
2023-04-16T06:56:11.350Z,1786.00
2023-04-16T06:57:11.346Z,1817.00
2023-04-16T06:58:11.344Z,1742.00
2023-04-16T06:59:11.442Z,1691.00
2023-04-16T07:00:11.318Z,1718.00
2023-04-16T07:01:11.387Z,1725.00
2023-04-16T07:02:11.404Z,1753.00
2023-04-16T07:03:11.451Z,1768.00
2023-04-16T07:04:11.413Z,1786.00
2023-04-16T07:05:11.297Z,1852.00
2023-04-16T07:06:11.273Z,1825.00
2023-04-16T07:07:11.303Z,1793.00
2023-04-16T07:08:11.291Z,1672.00
2023-04-16T07:09:11.504Z,1673.00
2023-04-16T07:10:11.251Z,1682.00
2023-04-16T07:11:11.260Z,1712.00
2023-04-16T07:12:11.256Z,1748.00
2023-04-16T07:13:11.251Z,1757.00
2023-04-16T07:14:11.235Z,1754.00
2023-04-16T07:15:11.243Z,1802.00
2023-04-16T07:16:11.238Z,1680.00
2023-04-16T07:17:11.212Z,1694.00
2023-04-16T07:18:11.273Z,1780.00
2023-04-16T07:19:11.510Z,1709.00
2023-04-16T07:20:11.208Z,1686.00
2023-04-16T07:21:11.174Z,1616.00
2023-04-16T07:22:11.182Z,1668.00
2023-04-16T07:23:11.169Z,1666.00
2023-04-16T07:24:11.172Z,1671.00
2023-04-16T07:25:11.172Z,1702.00
2023-04-16T07:26:11.156Z,1709.00
2023-04-16T07:27:11.157Z,1790.00
2023-04-16T07:28:11.168Z,1750.00
2023-04-16T07:29:11.377Z,1759.00
2023-04-16T07:30:11.121Z,1780.00
2023-04-16T07:31:11.113Z,1765.00
2023-04-16T07:32:13.328Z,1771.00
2023-04-16T07:33:11.191Z,1771.00
2023-04-16T07:34:11.103Z,1777.00
2023-04-16T07:35:11.136Z,1771.00
2023-04-16T07:36:11.093Z,1782.00
2023-04-16T07:37:11.130Z,1813.00
2023-04-16T07:38:11.092Z,1844.00
2023-04-16T07:39:11.367Z,1917.00
2023-04-16T07:40:11.091Z,1873.00
2023-04-16T07:41:11.092Z,1921.00
2023-04-16T07:42:11.074Z,1961.00
2023-04-16T07:43:11.070Z,2010.00
2023-04-16T07:44:11.062Z,1983.00
2023-04-16T07:45:11.037Z,2002.00
2023-04-16T07:46:11.062Z,2001.00
2023-04-16T07:47:11.026Z,2046.00
2023-04-16T07:48:11.056Z,1999.00
2023-04-16T07:49:11.156Z,2003.00
2023-04-16T07:50:11.029Z,1951.00
2023-04-16T07:51:11.002Z,1992.00
2023-04-16T07:52:11.000Z,2006.00
2023-04-16T07:53:10.992Z,1987.00
2023-04-16T07:54:11.028Z,2014.00
2023-04-16T07:55:10.995Z,1950.00
2023-04-16T07:56:10.981Z,1967.00
2023-04-16T07:57:10.972Z,1978.00
2023-04-16T07:58:10.996Z,1957.00
2023-04-16T07:59:21.892Z,2008.00
2023-04-16T08:00:11.984Z,2011.00
2023-04-16T08:01:10.945Z,2018.00
2023-04-16T08:02:11.018Z,2030.00
2023-04-16T08:03:11.168Z,2045.00
2023-04-16T08:04:11.050Z,2085.00
2023-04-16T08:05:11.041Z,2075.00
2023-04-16T08:06:10.946Z,2066.00
2023-04-16T08:07:10.917Z,2071.00
2023-04-16T08:08:10.895Z,2049.00
2023-04-16T08:09:11.204Z,2035.00
2023-04-16T08:10:11.026Z,2093.00
2023-04-16T08:11:11.080Z,2094.00
2023-04-16T08:12:11.143Z,2071.00
2023-04-16T08:13:11.221Z,2089.00
2023-04-16T08:14:11.244Z,2095.00
2023-04-16T08:15:11.321Z,2110.00
2023-04-16T08:16:11.398Z,2088.00
2023-04-16T08:17:11.428Z,2098.00
2023-04-16T08:18:11.515Z,2085.00
2023-04-16T08:19:11.683Z,2130.00
2023-04-16T08:20:15.014Z,2147.00
2023-04-16T08:21:12.618Z,2142.00
2023-04-16T08:22:11.592Z,2093.00
2023-04-16T08:23:11.586Z,2118.00
2023-04-16T08:24:11.610Z,2126.00
2023-04-16T08:25:11.598Z,2120.00
2023-04-16T08:26:11.596Z,2129.00
2023-04-16T08:27:18.496Z,2121.00
2023-04-16T08:28:12.589Z,2122.00
2023-04-16T08:29:11.866Z,2126.00
2023-04-16T08:30:11.549Z,2132.00
2023-04-16T08:31:11.600Z,2111.00
2023-04-16T08:32:11.553Z,2102.00
2023-04-16T08:33:11.606Z,2056.00
2023-04-16T08:34:11.558Z,2078.00
2023-04-16T08:35:11.534Z,2065.00
2023-04-16T08:36:11.520Z,2087.00
2023-04-16T08:37:11.578Z,2070.00
2023-04-16T08:38:11.633Z,2019.00
2023-04-16T08:39:11.857Z,2061.00
2023-04-16T08:40:11.750Z,2076.00
2023-04-16T08:41:11.798Z,2101.00
2023-04-16T08:42:11.879Z,2074.00
2023-04-16T08:43:11.956Z,2071.00
2023-04-16T08:44:11.989Z,2019.00
2023-04-16T08:45:12.049Z,2041.00
2023-04-16T08:46:12.171Z,2060.00
2023-04-16T08:47:12.190Z,2006.00
2023-04-16T08:48:12.246Z,1953.00
2023-04-16T08:49:12.457Z,1958.00
2023-04-16T08:50:12.351Z,1953.00
2023-04-16T08:51:12.416Z,1934.00
2023-04-16T08:52:12.470Z,1894.00
2023-04-16T08:53:12.586Z,1887.00
2023-04-16T08:54:12.585Z,1954.00
2023-04-16T08:55:12.662Z,1992.00
2023-04-16T08:56:12.713Z,2051.00
2023-04-16T08:57:12.763Z,2028.00
2023-04-16T08:58:12.834Z,2019.00
2023-04-16T08:59:12.887Z,2058.00
2023-04-16T09:00:12.954Z,2083.00
2023-04-16T09:01:13.001Z,2032.00
2023-04-16T09:02:13.143Z,1939.00
2023-04-16T09:03:13.368Z,1922.00
2023-04-16T09:04:13.346Z,1887.00
2023-04-16T09:05:13.242Z,1893.00
2023-04-16T09:06:13.332Z,1961.00
2023-04-16T09:07:13.370Z,2037.00
2023-04-16T09:08:13.463Z,2072.00
2023-04-16T09:09:13.509Z,2046.00
2023-04-16T09:10:13.574Z,2125.00
2023-04-16T09:11:13.631Z,2115.00
2023-04-16T09:12:13.690Z,2106.00
2023-04-16T09:13:13.771Z,2107.00
2023-04-16T09:14:13.806Z,2175.00
2023-04-16T09:15:13.905Z,2142.00
2023-04-16T09:16:13.993Z,2136.00
2023-04-16T09:17:13.956Z,2039.00
2023-04-16T09:18:14.014Z,2045.00
2023-04-16T09:19:14.084Z,1959.00
2023-04-16T09:20:14.147Z,1889.00
2023-04-16T09:21:14.195Z,1814.00
2023-04-16T09:22:14.262Z,1916.00
2023-04-16T09:23:14.330Z,1940.00
2023-04-16T09:24:14.358Z,1963.00
2023-04-16T09:25:14.418Z,1966.00
2023-04-16T09:26:14.497Z,1980.00
2023-04-16T09:27:14.553Z,1935.00
2023-04-16T09:28:14.635Z,1865.00
2023-04-16T09:29:14.665Z,1945.00
2023-04-16T09:30:14.724Z,2055.00
2023-04-16T09:31:14.777Z,2090.00
2023-04-16T09:32:14.969Z,2078.00
2023-04-16T09:33:14.926Z,2065.00
2023-04-16T09:34:14.957Z,2080.00
2023-04-16T09:35:15.016Z,2077.00
2023-04-16T09:36:15.062Z,2097.00
2023-04-16T09:37:15.132Z,2141.00
2023-04-16T09:38:15.185Z,2127.00
2023-04-16T09:39:15.245Z,2110.00
2023-04-16T09:40:15.290Z,2100.00
2023-04-16T09:41:15.362Z,2122.00
2023-04-16T09:42:15.409Z,2165.00
2023-04-16T09:43:15.499Z,2183.00
2023-04-16T09:44:15.553Z,2116.00
2023-04-16T09:45:15.604Z,2127.00
2023-04-16T09:46:15.695Z,2191.00
2023-04-16T09:47:15.707Z,2268.00
2023-04-16T09:48:15.783Z,2299.00
2023-04-16T09:49:15.846Z,2384.00
2023-04-16T09:50:17.800Z,2452.00
2023-04-16T09:51:16.002Z,2361.00
2023-04-16T09:52:16.029Z,2334.00
2023-04-16T09:53:16.078Z,2355.00
2023-04-16T09:54:16.134Z,2438.00
2023-04-16T09:55:16.206Z,2494.00
2023-04-16T09:56:16.244Z,2538.00
2023-04-16T09:57:16.310Z,2520.00
2023-04-16T09:58:16.375Z,2511.00
2023-04-16T09:59:16.401Z,2524.00
2023-04-16T10:00:16.445Z,2586.00
2023-04-16T10:01:16.522Z,2616.00
2023-04-16T10:02:16.719Z,2651.00
2023-04-16T10:03:16.660Z,2679.00
2023-04-16T10:04:16.890Z,2666.00
2023-04-16T10:05:16.721Z,2691.00
2023-04-16T10:06:16.734Z,2696.00
2023-04-16T10:07:16.762Z,2682.00
2023-04-16T10:08:16.834Z,2688.00
2023-04-16T10:09:16.852Z,2705.00
2023-04-16T10:10:16.877Z,2679.00
2023-04-16T10:11:16.935Z,2686.00
2023-04-16T10:12:16.977Z,2663.00
2023-04-16T10:13:17.043Z,2706.00
2023-04-16T10:14:17.039Z,2724.00
2023-04-16T10:15:17.104Z,2727.00
2023-04-16T10:16:17.183Z,2727.00
2023-04-16T10:17:17.195Z,2746.00
2023-04-16T10:18:17.231Z,2739.00
2023-04-16T10:19:17.258Z,2724.00
2023-04-16T10:20:17.366Z,2719.00
2023-04-16T10:21:17.328Z,2736.00
2023-04-16T10:22:17.369Z,2700.00
2023-04-16T10:23:17.429Z,2713.00
2023-04-16T10:24:17.432Z,2708.00
2023-04-16T10:25:17.491Z,2680.00
2023-04-16T10:26:17.528Z,2705.00
2023-04-16T10:27:17.572Z,2688.00
2023-04-16T10:28:17.639Z,2666.00
2023-04-16T10:29:17.615Z,2662.00
2023-04-16T10:30:17.694Z,2676.00
2023-04-16T10:31:17.740Z,2688.00
2023-04-16T10:32:17.793Z,2703.00
2023-04-16T10:33:17.773Z,2698.00
2023-04-16T10:34:17.796Z,2707.00
2023-04-16T10:35:17.838Z,2725.00
2023-04-16T10:36:17.884Z,2710.00
2023-04-16T10:37:17.931Z,2667.00
2023-04-16T10:38:17.973Z,2661.00
2023-04-16T10:39:18.087Z,2658.00
2023-04-16T10:40:18.117Z,2671.00
2023-04-16T10:41:18.046Z,2668.00
2023-04-16T10:42:18.097Z,2691.00
2023-04-16T10:43:18.153Z,2704.00
2023-04-16T10:44:18.193Z,2690.00
2023-04-16T10:45:18.191Z,2718.00
2023-04-16T10:46:18.268Z,2691.00
2023-04-16T10:47:18.296Z,2726.00
2023-04-16T10:48:18.338Z,2779.00
2023-04-16T10:49:18.335Z,2793.00
2023-04-16T10:50:18.371Z,2779.00
2023-04-16T10:51:18.391Z,2761.00
2023-04-16T10:52:18.438Z,2738.00
2023-04-16T10:53:18.486Z,2753.00
2023-04-16T10:54:18.509Z,2752.00
2023-04-16T10:55:18.550Z,2744.00
2023-04-16T10:56:18.571Z,2703.00
2023-04-16T10:57:18.624Z,2671.00
2023-04-16T10:58:18.680Z,2689.00
2023-04-16T10:59:18.686Z,2709.00
2023-04-16T11:00:18.712Z,2695.00
2023-04-16T11:01:18.752Z,2693.00
2023-04-16T11:02:19.085Z,2677.00
2023-04-16T11:03:19.139Z,2675.00
2023-04-16T11:04:18.944Z,2697.00
2023-04-16T11:05:18.877Z,2705.00
2023-04-16T11:06:18.910Z,2665.00
2023-04-16T11:07:19.021Z,2658.00
2023-04-16T11:08:18.976Z,2644.00
2023-04-16T11:09:18.988Z,2672.00
2023-04-16T11:10:19.037Z,2648.00
2023-04-16T11:11:19.073Z,2658.00
2023-04-16T11:12:19.114Z,2647.00
2023-04-16T11:13:19.164Z,2659.00
2023-04-16T11:14:19.147Z,2654.00
2023-04-16T11:15:19.184Z,2654.00
2023-04-16T11:16:19.265Z,2685.00
2023-04-16T11:17:19.263Z,2696.00
2023-04-16T11:18:19.295Z,2698.00
2023-04-16T11:19:19.309Z,2688.00
2023-04-16T11:20:20.726Z,2703.00
2023-04-16T11:21:19.407Z,2693.00
2023-04-16T11:22:19.418Z,2645.00
2023-04-16T11:23:19.444Z,2655.00
2023-04-16T11:24:19.465Z,2691.00
2023-04-16T11:25:19.496Z,2778.00
2023-04-16T11:26:19.538Z,2704.00
2023-04-16T11:27:19.552Z,2705.00
2023-04-16T11:28:19.579Z,2711.00
2023-04-16T11:29:19.621Z,2694.00
2023-04-16T11:30:19.648Z,2694.00
2023-04-16T11:31:19.701Z,2729.00
2023-04-16T11:32:19.738Z,2722.00
2023-04-16T11:33:19.753Z,2718.00
2023-04-16T11:34:19.787Z,2728.00
2023-04-16T11:35:19.813Z,2661.00
2023-04-16T11:36:19.821Z,2687.00
2023-04-16T11:37:19.850Z,2638.00
2023-04-16T11:38:19.897Z,2702.00
2023-04-16T11:39:19.936Z,2675.00
2023-04-16T11:40:19.963Z,2693.00
2023-04-16T11:41:20.002Z,2680.00
2023-04-16T11:42:20.033Z,2618.00
2023-04-16T11:43:20.056Z,2666.00
2023-04-16T11:44:20.096Z,2678.00
2023-04-16T11:45:20.120Z,2655.00
2023-04-16T11:46:27.346Z,2605.00
2023-04-16T11:47:21.237Z,2606.00
2023-04-16T11:48:20.234Z,2597.00
2023-04-16T11:49:20.138Z,2600.00
2023-04-16T11:50:20.133Z,2586.00
2023-04-16T11:51:20.130Z,2638.00
2023-04-16T11:52:20.107Z,2639.00
2023-04-16T11:53:20.114Z,2622.00
2023-04-16T11:54:20.095Z,2646.00
2023-04-16T11:55:20.109Z,2577.00
2023-04-16T11:56:20.084Z,2646.00
2023-04-16T11:57:20.072Z,2664.00
2023-04-16T11:58:20.108Z,2673.00
2023-04-16T11:59:20.090Z,2607.00
2023-04-16T12:00:24.621Z,2631.00
2023-04-16T12:01:20.070Z,2632.00
2023-04-16T12:02:20.166Z,2635.00
2023-04-16T12:03:20.221Z,2657.00
2023-04-16T12:04:20.123Z,2676.00
2023-04-16T12:05:20.035Z,2676.00
2023-04-16T12:06:20.031Z,2670.00
2023-04-16T12:07:20.033Z,2658.00
2023-04-16T12:08:20.038Z,2709.00
2023-04-16T12:09:20.014Z,2656.00